Bustamante, Texas
Current Conditions -  °F | °C
As of 6:35 AM on Monday 24 Nov 2014 (Local Time) from KHBV Reporting Station
Clear Clear  
Wind Chill: 53°   Ceiling: Unl
Heat Index: 53°   Visibility: 7mi
Dew Point: 44°   Wind: 12mph
Humidity: 70%   Direction: 340°NNW
Pressure: 29.99"   Gusts: NA
Location:  27.0695°N, 98.7494°W
Report Text: KHBV 241235Z AUTO 34010KT 7SM CLR 12/07 A2999 RMK AO2 T01190066
Loading
Personal Weather Stations






























Interactive Weather Map New forecast layout! Learn more

10-Day Weather Forecast

Advertisements
Track Severe Weather on mobile